createdAt,value
2022-07-28T00:00:09.308Z,11.3
2022-07-28T00:01:08.423Z,11.4
2022-07-28T00:02:08.242Z,12.6
2022-07-28T00:03:08.037Z,11.0
2022-07-28T00:04:08.789Z,11.6
2022-07-28T00:05:08.887Z,11.2
2022-07-28T00:06:08.340Z,12.1
2022-07-28T00:07:08.267Z,10.5
2022-07-28T00:08:08.015Z,8.9
2022-07-28T00:09:08.734Z,10.3
2022-07-28T00:10:08.988Z,11.4
2022-07-28T00:11:07.913Z,12.3
2022-07-28T00:12:08.685Z,10.0
2022-07-28T00:13:08.452Z,11.5
2022-07-28T00:14:08.673Z,9.8
2022-07-28T00:15:09.473Z,10.3
2022-07-28T00:16:08.430Z,11.4
2022-07-28T00:17:08.671Z,11.3
2022-07-28T00:18:08.439Z,10.8
2022-07-28T00:19:08.236Z,10.8
2022-07-28T00:20:08.554Z,10.6
2022-07-28T00:21:07.932Z,10.7
2022-07-28T00:22:08.570Z,11.2
2022-07-28T00:23:08.415Z,9.4
2022-07-28T00:24:08.741Z,12.1
2022-07-28T00:25:08.187Z,11.8
2022-07-28T00:26:08.760Z,11.2
2022-07-28T00:27:08.568Z,13.2
2022-07-28T00:28:07.927Z,11.1
2022-07-28T00:29:08.614Z,10.6
2022-07-28T00:30:08.764Z,12.5
2022-07-28T00:31:11.984Z,10.5
2022-07-28T00:32:08.212Z,10.3
2022-07-28T00:33:07.923Z,10.1
2022-07-28T00:34:08.166Z,9.9
2022-07-28T00:35:08.857Z,10.0
2022-07-28T00:36:11.501Z,10.2
2022-07-28T00:37:08.045Z,12.7
2022-07-28T00:38:08.647Z,11.0
2022-07-28T00:39:08.523Z,10.6
2022-07-28T00:40:08.786Z,11.0
2022-07-28T00:41:08.205Z,10.0
2022-07-28T00:42:08.477Z,11.0
2022-07-28T00:43:08.674Z,13.8
2022-07-28T00:44:08.100Z,12.1
2022-07-28T00:45:08.329Z,10.0
2022-07-28T00:46:08.726Z,10.3
2022-07-28T00:47:08.421Z,10.0
2022-07-28T00:48:08.274Z,10.4
2022-07-28T00:49:08.245Z,8.6
2022-07-28T00:50:09.000Z,11.7
2022-07-28T00:51:08.748Z,10.8
2022-07-28T00:52:08.633Z,9.5
2022-07-28T00:53:08.827Z,10.1
2022-07-28T00:54:08.145Z,9.4
2022-07-28T00:55:08.289Z,10.1
2022-07-28T00:56:08.568Z,10.8
2022-07-28T00:57:08.355Z,11.0
2022-07-28T00:58:08.225Z,9.7
2022-07-28T00:59:08.093Z,8.4
2022-07-28T01:00:09.346Z,9.4
2022-07-28T01:01:09.388Z,11.0
2022-07-28T01:02:08.210Z,11.3
2022-07-28T01:03:08.811Z,12.9
2022-07-28T01:04:08.493Z,10.4
2022-07-28T01:05:08.511Z,9.1
2022-07-28T01:06:25.995Z,10.4
2022-07-28T01:07:12.733Z,10.5
2022-07-28T01:08:28.042Z,10.2
2022-07-28T01:09:16.038Z,8.9
2022-07-28T01:10:13.589Z,11.7
2022-07-28T01:11:13.381Z,10.4
2022-07-28T01:12:22.076Z,8.8
2022-07-28T01:13:13.060Z,9.5
2022-07-28T01:14:09.528Z,11.3
2022-07-28T01:15:13.588Z,12.2
2022-07-28T01:16:08.812Z,9.6
2022-07-28T01:17:10.854Z,10.3
2022-07-28T01:18:11.016Z,10.0
2022-07-28T01:19:10.795Z,10.7
2022-07-28T01:20:17.624Z,9.9
2022-07-28T01:21:10.767Z,9.0
2022-07-28T01:22:10.475Z,11.2
2022-07-28T01:23:16.051Z,11.1
2022-07-28T01:24:18.548Z,9.9
2022-07-28T01:25:13.582Z,9.5
2022-07-28T01:26:21.510Z,10.4
2022-07-28T01:27:09.847Z,9.3
2022-07-28T01:28:18.997Z,10.0
2022-07-28T01:29:13.292Z,9.6
2022-07-28T01:30:16.016Z,10.8
2022-07-28T01:31:09.889Z,10.4
2022-07-28T01:32:12.252Z,10.5
2022-07-28T01:33:11.577Z,11.3
2022-07-28T01:34:09.666Z,10.9
2022-07-28T01:35:13.264Z,9.1
2022-07-28T01:36:10.369Z,10.0
2022-07-28T01:37:11.637Z,9.2
2022-07-28T01:38:09.745Z,10.3
2022-07-28T01:39:08.784Z,8.9
2022-07-28T01:40:10.004Z,10.2
2022-07-28T01:41:10.429Z,9.6
2022-07-28T01:42:08.985Z,9.6
2022-07-28T01:43:13.455Z,8.5
2022-07-28T01:44:11.000Z,9.2
2022-07-28T01:45:09.727Z,10.0
2022-07-28T01:46:08.243Z,11.0
2022-07-28T01:47:09.313Z,10.9
2022-07-28T01:48:09.030Z,8.3
2022-07-28T01:49:09.020Z,8.4
2022-07-28T01:50:09.241Z,10.2
2022-07-28T01:51:08.977Z,10.7
2022-07-28T01:52:08.879Z,7.9
2022-07-28T01:53:12.498Z,8.8
2022-07-28T01:54:09.918Z,10.0
2022-07-28T01:55:08.614Z,8.9
2022-07-28T01:56:08.585Z,8.4
2022-07-28T01:57:09.775Z,9.2
2022-07-28T01:58:09.139Z,7.5
2022-07-28T01:59:08.729Z,9.8
2022-07-28T02:00:08.899Z,9.5
2022-07-28T02:01:08.501Z,8.8
2022-07-28T02:02:08.702Z,9.6
2022-07-28T02:03:09.642Z,10.5
2022-07-28T02:04:09.235Z,11.0
2022-07-28T02:05:10.255Z,11.3
2022-07-28T02:06:11.286Z,10.8
2022-07-28T02:07:09.146Z,9.2
2022-07-28T02:08:08.710Z,10.6
2022-07-28T02:09:08.245Z,9.5
2022-07-28T02:10:10.029Z,9.2
2022-07-28T02:11:09.818Z,9.2
2022-07-28T02:12:08.959Z,8.9
2022-07-28T02:13:09.198Z,10.4
2022-07-28T02:14:09.607Z,9.4
2022-07-28T02:15:09.513Z,9.7
2022-07-28T02:16:09.778Z,9.2
2022-07-28T02:17:10.084Z,8.9
2022-07-28T02:18:09.265Z,9.5
2022-07-28T02:19:08.073Z,11.1
2022-07-28T02:20:09.759Z,9.1
2022-07-28T02:21:09.093Z,9.4
2022-07-28T02:22:08.963Z,10.2
2022-07-28T02:23:09.156Z,10.1
2022-07-28T02:24:08.396Z,10.4
2022-07-28T02:25:09.032Z,10.7
2022-07-28T02:26:10.028Z,10.0
2022-07-28T02:27:13.665Z,8.0
2022-07-28T02:28:09.059Z,9.3
2022-07-28T02:29:22.283Z,11.3
2022-07-28T02:30:13.134Z,9.5
2022-07-28T02:31:12.926Z,10.6
2022-07-28T02:32:27.287Z,8.7
2022-07-28T02:33:13.885Z,7.8
2022-07-28T02:34:09.865Z,10.1
2022-07-28T02:35:13.153Z,9.1
2022-07-28T02:36:15.197Z,8.8
2022-07-28T02:37:09.401Z,9.5
2022-07-28T02:38:12.964Z,8.9
2022-07-28T02:39:13.260Z,8.1
2022-07-28T02:40:13.099Z,9.3
2022-07-28T02:41:10.535Z,9.0
2022-07-28T02:42:13.186Z,8.4
2022-07-28T02:43:11.894Z,9.4
2022-07-28T02:44:12.565Z,10.2
2022-07-28T02:45:10.558Z,9.8
2022-07-28T02:46:10.419Z,10.4
2022-07-28T02:47:10.255Z,8.3
2022-07-28T02:48:10.675Z,8.9
2022-07-28T02:49:16.131Z,9.9
2022-07-28T02:50:09.787Z,8.9
2022-07-28T02:51:08.863Z,8.8
2022-07-28T02:52:10.330Z,8.8
2022-07-28T02:53:15.498Z,8.6
2022-07-28T02:54:09.652Z,7.8
2022-07-28T02:55:09.842Z,8.8
2022-07-28T02:56:09.006Z,8.1
2022-07-28T02:57:09.233Z,9.7
2022-07-28T02:58:08.695Z,9.1
2022-07-28T02:59:09.145Z,10.2
2022-07-28T03:00:09.210Z,8.7
2022-07-28T03:01:08.749Z,7.8
2022-07-28T03:02:08.738Z,9.5
2022-07-28T03:03:08.660Z,10.8
2022-07-28T03:04:09.237Z,8.7
2022-07-28T03:05:11.557Z,7.2
2022-07-28T03:06:08.344Z,8.0
2022-07-28T03:07:08.988Z,9.0
2022-07-28T03:08:08.689Z,8.9
2022-07-28T03:09:08.468Z,8.8
2022-07-28T03:10:13.074Z,7.8
2022-07-28T03:11:08.547Z,7.8
2022-07-28T03:12:08.507Z,9.3
2022-07-28T03:13:08.266Z,8.1
2022-07-28T03:14:07.890Z,8.2
2022-07-28T03:15:08.981Z,8.6
2022-07-28T03:16:08.377Z,7.0
2022-07-28T03:17:08.786Z,8.7
2022-07-28T03:18:08.436Z,8.4
2022-07-28T03:19:08.288Z,8.2
2022-07-28T03:20:08.676Z,8.8
2022-07-28T03:21:07.974Z,8.1
2022-07-28T03:22:10.363Z,8.0
2022-07-28T03:23:08.543Z,8.0
2022-07-28T03:24:09.239Z,9.0
2022-07-28T03:25:11.668Z,8.7
2022-07-28T03:26:21.530Z,7.9
2022-07-28T03:27:16.064Z,8.2
2022-07-28T03:28:09.125Z,8.1
2022-07-28T03:29:09.793Z,8.8
2022-07-28T03:30:10.738Z,8.1
2022-07-28T03:31:10.147Z,7.2
2022-07-28T03:32:08.464Z,7.5
2022-07-28T03:33:08.618Z,8.6
2022-07-28T03:34:08.914Z,9.0
2022-07-28T03:35:08.712Z,8.6
2022-07-28T03:36:11.286Z,8.4
2022-07-28T03:37:10.791Z,8.2
2022-07-28T03:38:12.881Z,8.4
2022-07-28T03:39:08.451Z,8.4
2022-07-28T03:40:10.410Z,8.8
2022-07-28T03:41:09.195Z,7.4
2022-07-28T03:42:08.673Z,8.4
2022-07-28T03:43:08.658Z,8.4
2022-07-28T03:44:09.920Z,7.9
2022-07-28T03:45:09.056Z,8.8
2022-07-28T03:46:13.004Z,8.0
2022-07-28T03:47:08.247Z,7.4
2022-07-28T03:48:08.025Z,8.3
2022-07-28T03:49:07.921Z,7.9
2022-07-28T03:50:08.574Z,9.0
2022-07-28T03:51:08.359Z,9.0
2022-07-28T03:52:08.192Z,7.8
2022-07-28T03:53:18.550Z,7.8
2022-07-28T03:54:08.738Z,8.0
2022-07-28T03:55:09.232Z,8.2
2022-07-28T03:56:08.398Z,8.2
2022-07-28T03:57:08.315Z,7.9
2022-07-28T03:58:08.029Z,9.6
2022-07-28T03:59:07.867Z,8.0
2022-07-28T04:00:09.847Z,7.6
2022-07-28T04:01:08.386Z,7.8
2022-07-28T04:02:08.624Z,7.8
2022-07-28T04:03:22.668Z,8.5
2022-07-28T04:04:08.249Z,7.5
2022-07-28T04:05:13.151Z,7.7
2022-07-28T04:06:07.920Z,7.9
2022-07-28T04:07:08.686Z,7.4
2022-07-28T04:08:08.499Z,7.1
2022-07-28T04:09:08.285Z,7.7
2022-07-28T04:10:09.194Z,8.5
2022-07-28T04:11:08.012Z,9.1
2022-07-28T04:12:08.656Z,8.6
2022-07-28T04:13:08.393Z,7.5
2022-07-28T04:14:12.036Z,9.2
2022-07-28T04:15:11.649Z,7.4
2022-07-28T04:16:10.452Z,7.9
2022-07-28T04:17:08.711Z,8.1
2022-07-28T04:18:07.949Z,8.4
2022-07-28T04:19:08.686Z,7.5
2022-07-28T04:20:09.097Z,6.4
2022-07-28T04:21:08.302Z,7.8
2022-07-28T04:22:08.231Z,8.2
2022-07-28T04:23:08.133Z,9.1
2022-07-28T04:24:09.010Z,8.2
2022-07-28T04:25:09.068Z,8.5
2022-07-28T04:26:08.289Z,7.7
2022-07-28T04:27:08.160Z,8.0
2022-07-28T04:28:08.124Z,7.2
2022-07-28T04:29:08.191Z,7.9
2022-07-28T04:30:09.340Z,7.9
2022-07-28T04:31:08.791Z,8.3
2022-07-28T04:32:08.574Z,7.5
2022-07-28T04:33:08.486Z,6.9
2022-07-28T04:34:08.232Z,6.3
2022-07-28T04:35:08.677Z,9.1
2022-07-28T04:36:07.885Z,9.3
2022-07-28T04:37:08.143Z,10.0
2022-07-28T04:38:08.378Z,11.2
2022-07-28T04:39:08.884Z,11.4
2022-07-28T04:40:09.485Z,8.6
2022-07-28T04:41:08.300Z,11.9
2022-07-28T04:42:08.057Z,10.1
2022-07-28T04:43:08.035Z,10.9
2022-07-28T04:44:08.758Z,10.0
2022-07-28T04:45:09.217Z,10.2
2022-07-28T04:46:11.939Z,9.0
2022-07-28T04:47:08.123Z,8.9
2022-07-28T04:48:07.914Z,8.2
2022-07-28T04:49:08.752Z,8.8
2022-07-28T04:50:08.998Z,8.2
2022-07-28T04:51:08.712Z,9.6
2022-07-28T04:52:08.578Z,8.2
2022-07-28T04:53:08.374Z,9.2
2022-07-28T04:54:08.233Z,9.7
2022-07-28T04:55:08.063Z,7.5
2022-07-28T04:56:08.730Z,8.2
2022-07-28T04:57:12.645Z,8.5
2022-07-28T04:58:09.322Z,7.0
2022-07-28T04:59:08.256Z,10.1
2022-07-28T05:00:08.555Z,8.2
2022-07-28T05:01:08.304Z,8.7
2022-07-28T05:02:08.067Z,7.7
2022-07-28T05:03:07.862Z,7.8
2022-07-28T05:04:08.694Z,7.7
2022-07-28T05:05:08.656Z,7.9
2022-07-28T05:06:08.221Z,7.5
2022-07-28T05:07:11.900Z,8.6
2022-07-28T05:08:07.988Z,9.5
2022-07-28T05:09:08.604Z,8.2
2022-07-28T05:10:08.937Z,8.3
2022-07-28T05:11:08.443Z,8.0
2022-07-28T05:12:08.157Z,7.5
2022-07-28T05:13:07.853Z,7.4
2022-07-28T05:14:08.562Z,8.7
2022-07-28T05:15:08.263Z,10.6
2022-07-28T05:16:08.663Z,7.5
2022-07-28T05:17:09.140Z,9.2
2022-07-28T05:18:08.227Z,7.9
2022-07-28T05:19:07.835Z,9.3
2022-07-28T05:20:08.270Z,7.9
2022-07-28T05:21:08.556Z,6.8
2022-07-28T05:22:08.380Z,7.8
2022-07-28T05:23:08.213Z,8.4
2022-07-28T05:24:08.147Z,6.7
2022-07-28T05:25:12.444Z,7.8
2022-07-28T05:26:08.711Z,7.5
2022-07-28T05:27:08.451Z,7.4
2022-07-28T05:28:08.707Z,8.8
2022-07-28T05:29:08.573Z,6.3
2022-07-28T05:30:08.662Z,7.0
2022-07-28T05:31:08.196Z,6.8
2022-07-28T05:32:08.160Z,7.1
2022-07-28T05:33:08.643Z,6.8
2022-07-28T05:34:08.496Z,7.1
2022-07-28T05:35:08.759Z,5.6
2022-07-28T05:36:10.219Z,7.8
2022-07-28T05:37:07.953Z,6.9
2022-07-28T05:38:11.001Z,8.5
2022-07-28T05:39:08.568Z,6.4
2022-07-28T05:40:12.270Z,5.5
2022-07-28T05:41:08.262Z,6.8
2022-07-28T05:42:08.051Z,6.9
2022-07-28T05:43:08.664Z,7.4
2022-07-28T05:44:08.514Z,7.0
2022-07-28T05:45:15.056Z,7.2
2022-07-28T05:46:08.236Z,7.0
2022-07-28T05:47:08.016Z,7.0
2022-07-28T05:48:08.791Z,7.6
2022-07-28T05:49:08.553Z,7.7
2022-07-28T05:50:08.598Z,6.8
2022-07-28T05:51:08.252Z,6.2
2022-07-28T05:52:08.006Z,7.4
2022-07-28T05:53:08.712Z,7.1
2022-07-28T05:54:08.537Z,5.7
2022-07-28T05:55:08.597Z,7.0
2022-07-28T05:56:08.664Z,5.9
2022-07-28T05:57:08.451Z,7.2
2022-07-28T05:58:08.419Z,6.6
2022-07-28T05:59:08.059Z,8.9
2022-07-28T06:00:08.948Z,6.6
2022-07-28T06:01:08.233Z,7.2
2022-07-28T06:02:09.937Z,5.8
2022-07-28T06:03:08.707Z,6.5
2022-07-28T06:04:26.845Z,7.5
2022-07-28T06:05:08.827Z,6.9
2022-07-28T06:06:16.022Z,5.3
2022-07-28T06:07:08.141Z,6.8
2022-07-28T06:08:07.885Z,6.9
2022-07-28T06:09:08.507Z,5.9
2022-07-28T06:10:08.545Z,6.4
2022-07-28T06:11:08.270Z,7.6
2022-07-28T06:12:08.197Z,7.3
2022-07-28T06:13:07.836Z,6.4
2022-07-28T06:14:08.635Z,6.6
2022-07-28T06:15:21.022Z,6.1
2022-07-28T06:16:13.027Z,6.7
2022-07-28T06:17:08.146Z,7.5
2022-07-28T06:18:08.020Z,7.0
2022-07-28T06:19:08.667Z,6.6
2022-07-28T06:20:08.756Z,6.8
2022-07-28T06:21:08.302Z,6.8
2022-07-28T06:22:08.239Z,6.2
2022-07-28T06:23:08.114Z,6.1
2022-07-28T06:24:08.738Z,6.4
2022-07-28T06:25:12.058Z,6.2
2022-07-28T06:26:08.303Z,7.3
2022-07-28T06:27:08.120Z,4.8
2022-07-28T06:28:08.011Z,5.3
2022-07-28T06:29:08.776Z,5.7
2022-07-28T06:30:08.778Z,6.2
2022-07-28T06:31:08.478Z,7.0
2022-07-28T06:32:08.194Z,5.5
2022-07-28T06:33:08.179Z,5.3
2022-07-28T06:34:08.726Z,5.9
2022-07-28T06:35:08.709Z,6.4
2022-07-28T06:36:08.334Z,7.3
2022-07-28T06:37:08.178Z,5.8
2022-07-28T06:38:08.064Z,6.9
2022-07-28T06:39:08.755Z,6.1
2022-07-28T06:40:08.557Z,6.0
2022-07-28T06:41:07.922Z,6.4
2022-07-28T06:42:08.652Z,5.0
2022-07-28T06:43:08.532Z,6.3
2022-07-28T06:44:08.719Z,5.9
2022-07-28T06:45:09.302Z,5.5
2022-07-28T06:46:08.411Z,4.5
2022-07-28T06:47:08.397Z,5.8
2022-07-28T06:48:08.181Z,7.0
2022-07-28T06:49:08.008Z,5.3
2022-07-28T06:50:24.924Z,6.4
2022-07-28T06:51:08.407Z,6.2
2022-07-28T06:52:08.278Z,5.9
2022-07-28T06:53:08.054Z,6.2
2022-07-28T06:54:11.232Z,5.2
2022-07-28T06:55:08.874Z,5.8
2022-07-28T06:56:08.443Z,6.3
2022-07-28T06:57:08.266Z,5.8
2022-07-28T06:58:08.152Z,4.8
2022-07-28T06:59:07.986Z,6.8
2022-07-28T07:00:09.461Z,6.7
2022-07-28T07:01:08.566Z,6.4
2022-07-28T07:02:08.279Z,6.2
2022-07-28T07:03:09.876Z,5.9
2022-07-28T07:04:08.056Z,4.9
2022-07-28T07:05:09.088Z,5.1
2022-07-28T07:06:08.472Z,7.1
2022-07-28T07:07:14.967Z,6.2
2022-07-28T07:08:08.160Z,5.6
2022-07-28T07:09:08.058Z,4.5
2022-07-28T07:10:08.931Z,4.8
2022-07-28T07:11:09.464Z,7.1
2022-07-28T07:12:08.370Z,6.1
2022-07-28T07:13:08.196Z,6.9
2022-07-28T07:14:07.964Z,4.9
2022-07-28T07:15:09.312Z,5.5
2022-07-28T07:16:08.783Z,6.4
2022-07-28T07:17:08.274Z,7.1
2022-07-28T07:18:08.086Z,5.1
2022-07-28T07:19:11.450Z,5.6
2022-07-28T07:20:09.495Z,6.6
2022-07-28T07:21:08.489Z,6.1
2022-07-28T07:22:08.337Z,4.6
2022-07-28T07:23:08.191Z,6.7
2022-07-28T07:24:08.421Z,5.0
2022-07-28T07:25:09.647Z,4.8
2022-07-28T07:26:08.496Z,5.9
2022-07-28T07:27:07.868Z,7.4
2022-07-28T07:28:08.541Z,5.4
2022-07-28T07:29:08.649Z,5.3
2022-07-28T07:30:08.690Z,5.6
2022-07-28T07:31:08.060Z,5.7
2022-07-28T07:32:10.973Z,5.5
2022-07-28T07:33:10.418Z,5.8
2022-07-28T07:34:08.444Z,5.3
2022-07-28T07:35:08.700Z,4.3
2022-07-28T07:36:08.077Z,6.0
2022-07-28T07:37:07.916Z,5.0
2022-07-28T07:38:08.620Z,4.8
2022-07-28T07:39:08.422Z,4.7
2022-07-28T07:40:08.800Z,5.7
2022-07-28T07:41:08.063Z,5.8
2022-07-28T07:42:08.079Z,4.8
2022-07-28T07:43:08.591Z,4.7
2022-07-28T07:44:08.489Z,5.2
2022-07-28T07:45:08.648Z,5.2
2022-07-28T07:46:08.168Z,5.2
2022-07-28T07:47:08.690Z,5.4
2022-07-28T07:48:08.616Z,5.1
2022-07-28T07:49:08.456Z,4.7
2022-07-28T07:50:08.329Z,4.4
2022-07-28T07:51:15.062Z,5.1
2022-07-28T07:52:07.879Z,5.0
2022-07-28T07:53:08.665Z,6.1
2022-07-28T07:54:09.883Z,4.4
2022-07-28T07:55:08.665Z,5.6
2022-07-28T07:56:08.131Z,6.0
2022-07-28T07:57:08.144Z,5.3
2022-07-28T07:58:08.659Z,4.2
2022-07-28T07:59:08.476Z,4.9
2022-07-28T08:00:08.750Z,4.5
2022-07-28T08:01:10.523Z,4.7
2022-07-28T08:02:08.064Z,6.2
2022-07-28T08:03:11.208Z,5.1
2022-07-28T08:04:08.599Z,5.0
2022-07-28T08:05:08.952Z,4.7
2022-07-28T08:06:08.173Z,4.7
2022-07-28T08:07:08.450Z,4.8
2022-07-28T08:08:08.569Z,4.5
2022-07-28T08:09:08.069Z,6.0
2022-07-28T08:10:08.554Z,5.8
2022-07-28T08:11:08.171Z,5.0
2022-07-28T08:12:08.218Z,3.8
2022-07-28T08:13:08.724Z,5.0
2022-07-28T08:14:08.930Z,5.5
2022-07-28T08:15:08.594Z,4.4
2022-07-28T08:16:08.411Z,6.6
2022-07-28T08:17:07.994Z,5.5
2022-07-28T08:18:08.000Z,5.4
2022-07-28T08:19:08.126Z,5.6
2022-07-28T08:20:08.365Z,4.8
2022-07-28T08:21:08.658Z,5.9
2022-07-28T08:22:08.455Z,6.2
2022-07-28T08:23:08.627Z,5.9
2022-07-28T08:24:08.215Z,4.8
2022-07-28T08:25:08.159Z,5.2
2022-07-28T08:26:08.580Z,4.8
2022-07-28T08:27:08.737Z,4.6
2022-07-28T08:28:08.232Z,4.9
2022-07-28T08:29:08.160Z,6.6
2022-07-28T08:30:08.946Z,6.1
2022-07-28T08:31:08.363Z,4.4
2022-07-28T08:32:07.956Z,4.0
2022-07-28T08:33:08.701Z,4.8
2022-07-28T08:34:31.490Z,4.5
2022-07-28T08:35:31.558Z,4.8
2022-07-28T08:36:08.212Z,4.8
2022-07-28T08:37:08.017Z,5.5
2022-07-28T08:38:08.689Z,5.4
2022-07-28T08:39:08.506Z,7.0
2022-07-28T08:40:08.871Z,5.4
2022-07-28T08:41:11.661Z,5.1
2022-07-28T08:42:17.850Z,4.8
2022-07-28T08:43:13.641Z,5.2
2022-07-28T08:44:13.235Z,5.8
2022-07-28T08:45:09.610Z,4.7
2022-07-28T08:46:08.337Z,5.4
2022-07-28T08:47:08.928Z,4.0
2022-07-28T08:48:10.004Z,4.6
2022-07-28T08:49:08.888Z,5.7
2022-07-28T08:50:09.105Z,6.2
2022-07-28T08:51:11.295Z,4.6
2022-07-28T08:52:11.141Z,4.5
2022-07-28T08:53:09.505Z,5.0
2022-07-28T08:54:09.736Z,4.0
2022-07-28T08:55:08.758Z,4.0
2022-07-28T08:56:11.188Z,4.8
2022-07-28T08:57:09.257Z,4.9
2022-07-28T08:58:08.062Z,4.9
2022-07-28T08:59:07.862Z,5.3
2022-07-28T09:00:09.545Z,5.0
2022-07-28T09:01:08.915Z,4.3
2022-07-28T09:02:11.428Z,5.1
2022-07-28T09:03:10.023Z,5.3
2022-07-28T09:04:08.208Z,4.3
2022-07-28T09:05:08.347Z,5.5
2022-07-28T09:06:08.803Z,4.7
2022-07-28T09:07:09.837Z,6.2
2022-07-28T09:08:09.813Z,5.4
2022-07-28T09:09:08.585Z,3.8
2022-07-28T09:10:08.531Z,3.8
2022-07-28T09:11:08.833Z,4.1
2022-07-28T09:12:08.606Z,4.4
2022-07-28T09:13:08.373Z,4.2
2022-07-28T09:14:08.149Z,5.4
2022-07-28T09:15:08.922Z,5.1
2022-07-28T09:16:09.099Z,4.2
2022-07-28T09:17:08.602Z,5.3
2022-07-28T09:18:07.906Z,5.3
2022-07-28T09:19:08.669Z,4.8
2022-07-28T09:20:11.358Z,4.7
2022-07-28T09:21:11.789Z,4.4
2022-07-28T09:22:08.124Z,4.4
2022-07-28T09:23:42.048Z,4.1
2022-07-28T09:24:08.619Z,4.4
2022-07-28T09:25:13.434Z,5.1
2022-07-28T09:26:11.294Z,4.5
2022-07-28T09:27:09.117Z,4.2
2022-07-28T09:28:15.064Z,5.2
2022-07-28T09:29:08.681Z,4.3
2022-07-28T09:30:09.180Z,3.9
2022-07-28T09:31:08.428Z,4.7
2022-07-28T09:32:08.311Z,3.5
2022-07-28T09:33:12.281Z,5.6
2022-07-28T09:34:08.212Z,4.1
2022-07-28T09:35:17.225Z,4.0
2022-07-28T09:36:12.710Z,4.0
2022-07-28T09:37:27.453Z,4.0
2022-07-28T09:38:08.604Z,4.5
2022-07-28T09:39:08.193Z,4.4
2022-07-28T09:40:11.440Z,3.9
2022-07-28T09:41:08.733Z,4.1
2022-07-28T09:42:08.623Z,3.5
2022-07-28T09:43:09.020Z,5.0
2022-07-28T09:44:13.468Z,4.2
2022-07-28T09:45:22.990Z,4.1
2022-07-28T09:46:10.454Z,5.5
2022-07-28T09:47:24.452Z,3.9
2022-07-28T09:48:12.606Z,4.9
2022-07-28T09:49:08.526Z,3.8
2022-07-28T09:50:12.970Z,4.3
2022-07-28T09:51:12.315Z,4.4
2022-07-28T09:52:08.668Z,4.9
2022-07-28T09:53:24.367Z,5.5
2022-07-28T09:54:13.131Z,5.0
2022-07-28T09:55:09.384Z,4.2
2022-07-28T09:56:08.899Z,3.5
2022-07-28T09:57:10.824Z,3.8
2022-07-28T09:58:10.719Z,4.7
2022-07-28T09:59:09.394Z,4.5
2022-07-28T10:00:09.516Z,3.7
2022-07-28T10:01:12.859Z,3.9
2022-07-28T10:02:08.246Z,4.3
2022-07-28T10:03:08.131Z,4.0
2022-07-28T10:04:08.679Z,3.9
2022-07-28T10:05:08.714Z,5.9
2022-07-28T10:06:13.185Z,4.8
2022-07-28T10:07:09.318Z,4.2
2022-07-28T10:08:08.049Z,4.5
2022-07-28T10:09:08.686Z,3.9
2022-07-28T10:10:08.807Z,3.6
2022-07-28T10:11:08.877Z,3.2
2022-07-28T10:12:18.622Z,4.1
2022-07-28T10:13:08.276Z,3.5
2022-07-28T10:14:08.709Z,4.9
2022-07-28T10:15:12.664Z,4.2
2022-07-28T10:16:08.626Z,3.8
2022-07-28T10:17:08.996Z,4.8
2022-07-28T10:18:08.013Z,4.4
2022-07-28T10:19:08.740Z,3.7
2022-07-28T10:20:09.022Z,4.7
2022-07-28T10:21:09.376Z,5.1
2022-07-28T10:22:08.342Z,4.1
2022-07-28T10:23:08.839Z,4.7
2022-07-28T10:24:10.677Z,4.6
2022-07-28T10:25:09.000Z,4.0
2022-07-28T10:26:12.847Z,4.5
2022-07-28T10:27:08.187Z,4.4
2022-07-28T10:28:10.234Z,4.0
2022-07-28T10:29:12.132Z,3.4
2022-07-28T10:30:09.081Z,3.8
2022-07-28T10:31:09.113Z,4.3
2022-07-28T10:32:08.161Z,4.5
2022-07-28T10:33:12.494Z,4.2
2022-07-28T10:34:14.223Z,3.0
2022-07-28T10:35:12.227Z,4.8
2022-07-28T10:36:08.479Z,4.9
2022-07-28T10:37:09.282Z,4.1
2022-07-28T10:38:10.969Z,4.9
2022-07-28T10:39:12.533Z,5.2
2022-07-28T10:40:10.419Z,5.1
2022-07-28T10:41:10.126Z,4.5
2022-07-28T10:42:09.572Z,4.6
2022-07-28T10:43:08.139Z,4.1
2022-07-28T10:44:09.574Z,4.0
2022-07-28T10:45:09.297Z,4.4
2022-07-28T10:46:11.807Z,4.5
2022-07-28T10:47:08.736Z,4.1
2022-07-28T10:48:08.045Z,4.0
2022-07-28T10:49:09.884Z,3.8
2022-07-28T10:50:08.959Z,4.5
2022-07-28T10:51:08.434Z,4.6
2022-07-28T10:52:15.438Z,4.3
2022-07-28T10:53:10.686Z,4.9
2022-07-28T10:54:17.660Z,4.7
2022-07-28T10:55:16.216Z,4.4
2022-07-28T10:56:16.569Z,4.7
2022-07-28T10:57:10.338Z,6.0
2022-07-28T10:58:26.535Z,4.8
2022-07-28T10:59:19.095Z,4.5
2022-07-28T11:00:26.373Z,4.2
2022-07-28T11:01:10.653Z,5.0
2022-07-28T11:02:13.587Z,4.9
2022-07-28T11:03:13.449Z,5.3
2022-07-28T11:04:08.257Z,3.3
2022-07-28T11:05:15.608Z,4.5
2022-07-28T11:06:26.470Z,4.6
2022-07-28T11:07:09.565Z,4.3
2022-07-28T11:08:13.371Z,5.7
2022-07-28T11:09:21.108Z,4.9
2022-07-28T11:10:14.473Z,4.7
2022-07-28T11:11:09.485Z,5.6
2022-07-28T11:12:09.956Z,4.6
2022-07-28T11:13:14.370Z,4.4
2022-07-28T11:14:28.175Z,5.1
2022-07-28T11:15:26.740Z,4.8
2022-07-28T11:16:18.644Z,4.8
2022-07-28T11:17:12.613Z,4.8
2022-07-28T11:18:09.251Z,4.5
2022-07-28T11:19:36.226Z,4.4
2022-07-28T11:20:16.517Z,4.3
2022-07-28T11:21:08.632Z,3.4
2022-07-28T11:22:19.125Z,4.0
2022-07-28T11:23:26.530Z,5.0
2022-07-28T11:24:08.261Z,4.8
2022-07-28T11:25:19.149Z,3.6
2022-07-28T11:26:24.626Z,4.6
2022-07-28T11:27:08.669Z,4.6
2022-07-28T11:28:08.498Z,5.1
2022-07-28T11:29:14.467Z,4.9
2022-07-28T11:30:09.129Z,5.3
2022-07-28T11:31:08.025Z,4.9
2022-07-28T11:32:08.594Z,4.8
2022-07-28T11:33:08.517Z,5.0
2022-07-28T11:34:08.264Z,4.9
2022-07-28T11:35:08.583Z,4.1
2022-07-28T11:36:07.901Z,3.9
2022-07-28T11:37:09.155Z,4.8
2022-07-28T11:38:10.112Z,4.2
2022-07-28T11:39:23.863Z,5.1
2022-07-28T11:40:18.619Z,4.4
2022-07-28T11:41:12.770Z,5.0
2022-07-28T11:42:27.746Z,4.6
2022-07-28T11:43:36.919Z,4.2
2022-07-28T11:44:26.025Z,4.0
2022-07-28T11:45:21.330Z,4.7
2022-07-28T11:46:13.193Z,5.0
2022-07-28T11:47:20.955Z,4.9
2022-07-28T11:48:20.696Z,4.2
2022-07-28T11:49:14.865Z,4.8
2022-07-28T11:50:12.516Z,3.8
2022-07-28T11:51:09.096Z,3.9
2022-07-28T11:52:15.204Z,4.3
2022-07-28T11:53:08.791Z,4.4
2022-07-28T11:54:13.897Z,5.8
2022-07-28T11:55:13.242Z,4.3
2022-07-28T11:56:13.186Z,4.4
2022-07-28T11:57:08.365Z,4.1
2022-07-28T11:58:13.628Z,5.0
2022-07-28T11:59:08.644Z,4.2
2022-07-28T12:00:08.849Z,4.7
2022-07-28T12:01:09.065Z,4.0
2022-07-28T12:02:08.334Z,3.6
2022-07-28T12:03:07.871Z,3.9
2022-07-28T12:04:10.355Z,4.0
2022-07-28T12:05:09.934Z,3.5
2022-07-28T12:06:08.663Z,4.0
2022-07-28T12:07:08.835Z,3.8
2022-07-28T12:08:08.767Z,3.4
2022-07-28T12:09:08.859Z,3.1
2022-07-28T12:10:51.971Z,5.0
2022-07-28T12:11:08.232Z,4.4
2022-07-28T12:12:08.159Z,5.1
2022-07-28T12:13:07.844Z,4.2
2022-07-28T12:14:09.505Z,3.4
2022-07-28T12:15:13.357Z,3.4
2022-07-28T12:16:08.970Z,4.2
2022-07-28T12:17:08.112Z,6.0
2022-07-28T12:18:10.262Z,4.4
2022-07-28T12:19:09.000Z,3.8
2022-07-28T12:20:11.563Z,4.3
2022-07-28T12:21:08.157Z,4.4
2022-07-28T12:22:15.657Z,3.7
2022-07-28T12:23:08.662Z,3.4
2022-07-28T12:24:12.412Z,5.2
2022-07-28T12:25:13.348Z,3.9
2022-07-28T12:26:10.184Z,3.2
2022-07-28T12:27:08.004Z,5.1
2022-07-28T12:28:15.101Z,3.6
2022-07-28T12:29:12.085Z,4.2
2022-07-28T12:30:08.824Z,5.0
2022-07-28T12:31:11.246Z,3.5
2022-07-28T12:32:08.009Z,5.3
2022-07-28T12:33:26.085Z,4.1
2022-07-28T12:34:08.510Z,3.9
2022-07-28T12:35:08.596Z,4.4
2022-07-28T12:36:08.247Z,4.0
2022-07-28T12:37:08.084Z,4.6
2022-07-28T12:38:08.699Z,4.9
2022-07-28T12:39:12.935Z,4.9
2022-07-28T12:40:09.139Z,5.0
2022-07-28T12:41:12.656Z,2.9
2022-07-28T12:42:08.874Z,3.8
2022-07-28T12:43:08.725Z,5.6
2022-07-28T12:44:08.836Z,3.8
2022-07-28T12:45:08.712Z,3.5
2022-07-28T12:46:08.346Z,4.6
2022-07-28T12:47:09.255Z,5.4
2022-07-28T12:48:08.636Z,3.7
2022-07-28T12:49:13.478Z,4.8
2022-07-28T12:50:15.389Z,4.0
2022-07-28T12:51:08.104Z,3.7
2022-07-28T12:52:18.626Z,3.6
2022-07-28T12:53:09.720Z,5.3
2022-07-28T12:54:09.457Z,5.1
2022-07-28T12:55:22.028Z,4.1
2022-07-28T12:56:08.196Z,4.3
2022-07-28T12:57:07.922Z,4.2
2022-07-28T12:58:13.775Z,4.8
2022-07-28T12:59:09.427Z,4.2
2022-07-28T13:00:08.555Z,3.9
2022-07-28T13:01:08.100Z,4.1
2022-07-28T13:02:08.470Z,4.7
2022-07-28T13:03:23.643Z,3.7
2022-07-28T13:04:07.977Z,4.5
2022-07-28T13:05:08.698Z,4.0
2022-07-28T13:06:09.865Z,3.6
2022-07-28T13:07:24.783Z,4.8
2022-07-28T13:08:08.591Z,3.6
2022-07-28T13:09:14.984Z,3.8
2022-07-28T13:10:11.530Z,4.4
2022-07-28T13:11:17.351Z,4.1
2022-07-28T13:12:17.791Z,3.8
2022-07-28T13:13:08.521Z,5.3
2022-07-28T13:14:08.525Z,4.3
2022-07-28T13:15:14.612Z,4.2
2022-07-28T13:16:15.159Z,4.4
2022-07-28T13:17:09.127Z,3.8
2022-07-28T13:18:08.777Z,4.0
2022-07-28T13:19:13.250Z,4.7
2022-07-28T13:20:08.726Z,4.2
2022-07-28T13:21:08.018Z,5.0
2022-07-28T13:22:09.415Z,3.5
2022-07-28T13:23:08.561Z,4.6
2022-07-28T13:24:09.149Z,4.0
2022-07-28T13:25:08.306Z,4.4
2022-07-28T13:26:08.176Z,4.6
2022-07-28T13:27:08.786Z,3.8
2022-07-28T13:28:24.752Z,3.3
2022-07-28T13:29:12.796Z,4.8
2022-07-28T13:30:09.366Z,4.8
2022-07-28T13:31:08.106Z,4.2
2022-07-28T13:32:08.156Z,5.1
2022-07-28T13:33:13.479Z,3.7
2022-07-28T13:34:09.255Z,4.6
2022-07-28T13:35:14.808Z,3.6
2022-07-28T13:36:08.052Z,4.3
2022-07-28T13:37:08.718Z,3.6
2022-07-28T13:38:08.667Z,4.0
2022-07-28T13:39:08.521Z,3.8
2022-07-28T13:40:08.847Z,4.0
2022-07-28T13:41:08.033Z,3.8
2022-07-28T13:42:07.879Z,2.9